sensor_id;sensor_type;location;lat;lon;timestamp;pressure;altitude;pressure_sealevel;temperature;humidity
30744;BME280;17486;46.738;7.622;2023-01-27T00:00:19;95154.44;;;1.53;54.99
30744;BME280;17486;46.738;7.622;2023-01-27T00:02:44;95138.28;;;1.47;55.12
30744;BME280;17486;46.738;7.622;2023-01-27T00:05:11;95163.00;;;1.52;54.62
30744;BME280;17486;46.738;7.622;2023-01-27T00:07:38;95148.47;;;1.54;55.07
30744;BME280;17486;46.738;7.622;2023-01-27T00:10:04;95107.84;;;1.29;54.67
30744;BME280;17486;46.738;7.622;2023-01-27T00:12:29;95110.31;;;1.33;54.42
30744;BME280;17486;46.738;7.622;2023-01-27T00:15:14;95139.03;;;1.54;54.71
30744;BME280;17486;46.738;7.622;2023-01-27T00:17:40;95095.88;;;1.29;54.92
30744;BME280;17486;46.738;7.622;2023-01-27T00:20:07;95144.16;;;1.54;55.01
30744;BME280;17486;46.738;7.622;2023-01-27T00:22:32;95119.53;;;1.45;54.75
30744;BME280;17486;46.738;7.622;2023-01-27T00:25:16;95092.47;;;1.29;54.79
30744;BME280;17486;46.738;7.622;2023-01-27T00:27:42;95097.59;;;1.29;55.09
30744;BME280;17486;46.738;7.622;2023-01-27T00:30:08;95132.28;;;1.50;55.21
30744;BME280;17486;46.738;7.622;2023-01-27T00:32:34;95112.81;;;1.38;55.30
30744;BME280;17486;46.738;7.622;2023-01-27T00:35:18;95121.25;;;1.45;54.74
30744;BME280;17486;46.738;7.622;2023-01-27T00:37:45;95096.72;;;1.28;55.00
30744;BME280;17486;46.738;7.622;2023-01-27T00:40:12;95127.22;;;1.45;54.97
30744;BME280;17486;46.738;7.622;2023-01-27T00:42:38;95130.56;;;1.49;55.21
30744;BME280;17486;46.738;7.622;2023-01-27T00:45:04;95127.22;;;1.47;55.18
30744;BME280;17486;46.738;7.622;2023-01-27T00:47:48;95093.38;;;1.26;55.26
30744;BME280;17486;46.738;7.622;2023-01-27T00:50:14;95125.56;;;1.43;55.26
30744;BME280;17486;46.738;7.622;2023-01-27T00:52:40;95131.47;;;1.46;55.40
30744;BME280;17486;46.738;7.622;2023-01-27T00:55:06;95127.22;;;1.45;55.33
30744;BME280;17486;46.738;7.622;2023-01-27T00:57:32;95085.78;;;1.20;55.17
30744;BME280;17486;46.738;7.622;2023-01-27T00:59:57;95122.09;;;1.47;54.66
30744;BME280;17486;46.738;7.622;2023-01-27T01:02:22;95089.09;;;1.27;55.17
30744;BME280;17486;46.738;7.622;2023-01-27T01:04:48;95078.09;;;1.20;55.21
30744;BME280;17486;46.738;7.622;2023-01-27T01:07:13;95072.97;;;1.20;54.68
30744;BME280;17486;46.738;7.622;2023-01-27T01:09:39;95114.41;;;1.45;55.21
30744;BME280;17486;46.738;7.622;2023-01-27T01:12:04;95109.34;;;1.42;55.26
30744;BME280;17486;46.738;7.622;2023-01-27T01:14:29;95074.69;;;1.20;55.11
30744;BME280;17486;46.738;7.622;2023-01-27T01:16:55;95113.53;;;1.46;55.07
30744;BME280;17486;46.738;7.622;2023-01-27T01:19:21;95116.13;;;1.45;55.15
30744;BME280;17486;46.738;7.622;2023-01-27T01:21:46;95122.13;;;1.44;55.09
30744;BME280;17486;46.738;7.622;2023-01-27T01:24:11;95129.81;;;1.44;55.25
30744;BME280;17486;46.738;7.622;2023-01-27T01:26:37;95118.69;;;1.45;55.17
30744;BME280;17486;46.738;7.622;2023-01-27T01:29:03;95119.56;;;1.44;54.78
30744;BME280;17486;46.738;7.622;2023-01-27T01:31:28;95111.03;;;1.43;54.75
30744;BME280;17486;46.738;7.622;2023-01-27T01:33:53;95078.09;;;1.20;54.65
30744;BME280;17486;46.738;7.622;2023-01-27T01:36:19;95117.91;;;1.40;54.97
30744;BME280;17486;46.738;7.622;2023-01-27T01:38:46;95103.50;;;1.34;54.49
30744;BME280;17486;46.738;7.622;2023-01-27T01:41:15;95106.88;;;1.36;54.68
30744;BME280;17486;46.738;7.622;2023-01-27T01:43:41;95117.97;;;1.37;54.61
30744;BME280;17486;46.738;7.622;2023-01-27T01:46:08;95067.03;;;1.16;55.07
30744;BME280;17486;46.738;7.622;2023-01-27T01:48:44;95092.34;;;1.37;54.77
30744;BME280;17486;46.738;7.622;2023-01-27T01:53:59;95082.16;;;1.32;54.49
30744;BME280;17486;46.738;7.622;2023-01-27T01:56:56;95073.75;;;1.25;54.82
30744;BME280;17486;46.738;7.622;2023-01-27T01:59:26;95078.88;;;1.25;54.85
30744;BME280;17486;46.738;7.622;2023-01-27T02:01:56;95090.84;;;1.25;54.43
30744;BME280;17486;46.738;7.622;2023-01-27T02:04:25;95083.25;;;1.19;54.30
30744;BME280;17486;46.738;7.622;2023-01-27T02:07:06;95085.75;;;1.22;54.37
30744;BME280;17486;46.738;7.622;2023-01-27T02:09:33;95024.69;;;0.95;54.66
30744;BME280;17486;46.738;7.622;2023-01-27T02:11:59;95080.63;;;1.23;54.79
30744;BME280;17486;46.738;7.622;2023-01-27T02:14:24;95070.44;;;1.19;54.65
30744;BME280;17486;46.738;7.622;2023-01-27T02:16:50;95075.50;;;1.22;54.78
30744;BME280;17486;46.738;7.622;2023-01-27T02:19:29;95044.25;;;1.01;54.99
30744;BME280;17486;46.738;7.622;2023-01-27T02:21:58;95083.13;;;1.26;54.98
30744;BME280;17486;46.738;7.622;2023-01-27T02:24:30;95027.22;;;0.97;54.74
30744;BME280;17486;46.738;7.622;2023-01-27T02:26:59;95083.25;;;1.19;54.46
30744;BME280;17486;46.738;7.622;2023-01-27T02:29:24;95027.38;;;0.88;54.29
30744;BME280;17486;46.738;7.622;2023-01-27T02:31:50;95068.88;;;1.08;54.34
30744;BME280;17486;46.738;7.622;2023-01-27T02:34:20;95061.38;;;0.97;54.86
30744;BME280;17486;46.738;7.622;2023-01-27T02:36:57;95025.06;;;0.72;54.96
30744;BME280;17486;46.738;7.622;2023-01-27T02:39:26;95074.22;;;0.96;55.10
30744;BME280;17486;46.738;7.622;2023-01-27T02:41:55;95061.38;;;0.97;54.57
30744;BME280;17486;46.738;7.622;2023-01-27T02:44:22;95065.53;;;1.03;54.60
30744;BME280;17486;46.738;7.622;2023-01-27T02:46:47;95059.56;;;1.04;54.84
30744;BME280;17486;46.738;7.622;2023-01-27T02:49:13;95047.63;;;1.03;54.77
30744;BME280;17486;46.738;7.622;2023-01-27T02:51:39;95061.19;;;1.11;54.70
30744;BME280;17486;46.738;7.622;2023-01-27T02:54:05;95005.22;;;0.87;54.17
30744;BME280;17486;46.738;7.622;2023-01-27T02:56:31;95004.34;;;0.89;54.59
30744;BME280;17486;46.738;7.622;2023-01-27T02:58:56;95059.41;;;1.13;54.44
30744;BME280;17486;46.738;7.622;2023-01-27T03:01:23;95022.84;;;1.05;54.38
30744;BME280;17486;46.738;7.622;2023-01-27T03:03:49;95033.13;;;1.02;54.32
30744;BME280;17486;46.738;7.622;2023-01-27T03:06:16;95046.56;;;1.16;54.61
30744;BME280;17486;46.738;7.622;2023-01-27T03:08:42;95055.00;;;1.22;54.73
30744;BME280;17486;46.738;7.622;2023-01-27T03:11:08;95061.00;;;1.22;54.63
30744;BME280;17486;46.738;7.622;2023-01-27T03:13:34;95019.47;;;1.02;54.46
30744;BME280;17486;46.738;7.622;2023-01-27T03:16:01;95013.50;;;1.03;54.41
30744;BME280;17486;46.738;7.622;2023-01-27T03:18:47;95054.88;;;1.29;54.48
30744;BME280;17486;46.738;7.622;2023-01-27T03:21:15;95044.75;;;1.23;54.33
30744;BME280;17486;46.738;7.622;2023-01-27T03:23:41;95005.84;;;0.99;54.76
30744;BME280;17486;46.738;7.622;2023-01-27T03:26:08;95054.94;;;1.26;53.98
30744;BME280;17486;46.738;7.622;2023-01-27T03:28:34;95048.09;;;1.27;54.10
30744;BME280;17486;46.738;7.622;2023-01-27T03:31:04;95037.97;;;1.21;54.18
30744;BME280;17486;46.738;7.622;2023-01-27T03:33:30;95000.75;;;0.98;54.06
30744;BME280;17486;46.738;7.622;2023-01-27T03:35:56;95019.41;;;1.08;53.95
30744;BME280;17486;46.738;7.622;2023-01-27T03:38:40;95037.06;;;1.23;54.39
30744;BME280;17486;46.738;7.622;2023-01-27T03:41:24;95042.13;;;1.26;53.94
30744;BME280;17486;46.738;7.622;2023-01-27T03:44:09;95038.88;;;1.18;53.84
30744;BME280;17486;46.738;7.622;2023-01-27T03:46:53;95034.63;;;1.15;54.04
30744;BME280;17486;46.738;7.622;2023-01-27T03:49:18;95003.41;;;0.93;53.44
30744;BME280;17486;46.738;7.622;2023-01-27T03:51:44;95035.56;;;1.10;54.33
30744;BME280;17486;46.738;7.622;2023-01-27T03:54:09;95024.56;;;1.03;54.04
30744;BME280;17486;46.738;7.622;2023-01-27T03:56:34;95005.13;;;0.91;53.82
30744;BME280;17486;46.738;7.622;2023-01-27T03:59:00;94991.63;;;0.83;53.56
30744;BME280;17486;46.738;7.622;2023-01-27T04:01:25;95031.34;;;1.07;54.09
30744;BME280;17486;46.738;7.622;2023-01-27T04:03:52;95008.53;;;0.93;53.84
30744;BME280;17486;46.738;7.622;2023-01-27T04:06:38;95003.44;;;0.92;54.22
30744;BME280;17486;46.738;7.622;2023-01-27T04:09:27;95001.78;;;0.89;53.87
30744;BME280;17486;46.738;7.622;2023-01-27T04:11:55;95003.44;;;0.90;54.13
30744;BME280;17486;46.738;7.622;2023-01-27T04:16:52;95027.94;;;1.07;54.21
30744;BME280;17486;46.738;7.622;2023-01-27T04:19:18;95044.06;;;1.12;53.97
30744;BME280;17486;46.738;7.622;2023-01-27T04:21:44;95046.59;;;1.13;53.77
30744;BME280;17486;46.738;7.622;2023-01-27T04:24:11;95036.31;;;1.16;53.99
30744;BME280;17486;46.738;7.622;2023-01-27T04:26:48;95038.00;;;1.18;54.04
30744;BME280;17486;46.738;7.622;2023-01-27T04:29:14;95059.34;;;1.18;53.46
30744;BME280;17486;46.738;7.622;2023-01-27T04:31:40;95009.38;;;0.94;53.94
30744;BME280;17486;46.738;7.622;2023-01-27T04:34:07;95009.41;;;0.91;53.93
30744;BME280;17486;46.738;7.622;2023-01-27T04:36:33;95005.13;;;0.91;53.62
30744;BME280;17486;46.738;7.622;2023-01-27T04:38:58;95052.47;;;1.20;54.06
30744;BME280;17486;46.738;7.622;2023-01-27T04:41:24;95016.97;;;0.98;53.64
30744;BME280;17486;46.738;7.622;2023-01-27T04:43:49;95028.06;;;0.99;54.21
30744;BME280;17486;46.738;7.622;2023-01-27T04:46:14;95020.31;;;1.02;53.96
30744;BME280;17486;46.738;7.622;2023-01-27T04:48:40;95010.19;;;0.96;54.72
30744;BME280;17486;46.738;7.622;2023-01-27T04:51:05;95048.25;;;1.18;54.43
30744;BME280;17486;46.738;7.622;2023-01-27T04:53:31;95049.94;;;1.19;54.82
30744;BME280;17486;46.738;7.622;2023-01-27T04:56:01;95015.28;;;0.97;54.78
30744;BME280;17486;46.738;7.622;2023-01-27T04:58:27;95056.69;;;1.23;55.13
30744;BME280;17486;46.738;7.622;2023-01-27T05:00:52;95009.38;;;0.94;54.96
30744;BME280;17486;46.738;7.622;2023-01-27T05:03:18;95054.16;;;1.21;55.27
30744;BME280;17486;46.738;7.622;2023-01-27T05:05:43;94985.75;;;0.76;55.21
30744;BME280;17486;46.738;7.622;2023-01-27T05:08:09;95040.56;;;1.18;55.14
30744;BME280;17486;46.738;7.622;2023-01-27T05:10:35;95053.34;;;1.21;54.96
30744;BME280;17486;46.738;7.622;2023-01-27T05:13:01;95000.88;;;0.92;55.05
30744;BME280;17486;46.738;7.622;2023-01-27T05:15:27;95043.13;;;1.18;54.86
30744;BME280;17486;46.738;7.622;2023-01-27T05:17:53;95037.19;;;1.14;54.84
30744;BME280;17486;46.738;7.622;2023-01-27T05:20:18;95032.88;;;1.18;54.84
30744;BME280;17486;46.738;7.622;2023-01-27T05:22:44;95038.00;;;1.18;54.71
30744;BME280;17486;46.738;7.622;2023-01-27T05:25:09;95038.00;;;1.18;54.83
30744;BME280;17486;46.738;7.622;2023-01-27T05:27:35;95043.16;;;1.16;54.91
30744;BME280;17486;46.738;7.622;2023-01-27T05:30:00;95040.69;;;1.11;55.36
30744;BME280;17486;46.738;7.622;2023-01-27T05:32:26;95060.28;;;1.12;55.34
30744;BME280;17486;46.738;7.622;2023-01-27T05:34:51;95055.19;;;1.11;55.50
30744;BME280;17486;46.738;7.622;2023-01-27T05:37:17;95055.25;;;1.08;55.23
30744;BME280;17486;46.738;7.622;2023-01-27T05:39:42;95034.97;;;0.94;54.72
30744;BME280;17486;46.738;7.622;2023-01-27T05:42:07;95030.75;;;0.91;55.33
30744;BME280;17486;46.738;7.622;2023-01-27T05:44:33;95021.41;;;0.87;55.47
30744;BME280;17486;46.738;7.622;2023-01-27T05:46:58;95060.28;;;1.12;55.45
30744;BME280;17486;46.738;7.622;2023-01-27T05:49:24;95067.09;;;1.13;55.58
30744;BME280;17486;46.738;7.622;2023-01-27T05:51:49;95071.34;;;1.14;55.13
30744;BME280;17486;46.738;7.622;2023-01-27T05:54:14;95029.91;;;0.91;54.94
30744;BME280;17486;46.738;7.622;2023-01-27T05:56:40;95046.06;;;0.94;55.40
30744;BME280;17486;46.738;7.622;2023-01-27T05:59:06;95073.91;;;1.14;55.12
30744;BME280;17486;46.738;7.622;2023-01-27T06:01:33;95031.69;;;0.86;55.63
30744;BME280;17486;46.738;7.622;2023-01-27T06:03:59;95047.78;;;0.92;55.13
30744;BME280;17486;46.738;7.622;2023-01-27T06:06:26;95067.13;;;1.12;55.15
30744;BME280;17486;46.738;7.622;2023-01-27T06:08:52;95068.84;;;1.11;55.40
30744;BME280;17486;46.738;7.622;2023-01-27T06:11:18;95046.94;;;0.93;55.41
30744;BME280;17486;46.738;7.622;2023-01-27T06:13:45;95051.06;;;1.04;55.24
30744;BME280;17486;46.738;7.622;2023-01-27T06:16:13;95036.72;;;0.92;55.60
30744;BME280;17486;46.738;7.622;2023-01-27T06:18:39;95074.81;;;1.12;55.72
30744;BME280;17486;46.738;7.622;2023-01-27T06:21:06;95064.63;;;1.07;55.15
30744;BME280;17486;46.738;7.622;2023-01-27T06:23:32;95052.72;;;1.06;55.63
30744;BME280;17486;46.738;7.622;2023-01-27T06:26:04;95015.47;;;0.87;55.43
30744;BME280;17486;46.738;7.622;2023-01-27T06:28:30;95047.66;;;1.02;55.54
30744;BME280;17486;46.738;7.622;2023-01-27T06:31:07;95053.75;;;0.94;55.38
30744;BME280;17486;46.738;7.622;2023-01-27T06:33:32;95023.41;;;0.70;55.47
30744;BME280;17486;46.738;7.622;2023-01-27T06:36:03;95042.09;;;0.73;55.58
30744;BME280;17486;46.738;7.622;2023-01-27T06:38:29;95059.84;;;0.86;55.61
30744;BME280;17486;46.738;7.622;2023-01-27T06:40:54;95070.03;;;0.89;55.50
30744;BME280;17486;46.738;7.622;2023-01-27T06:43:20;95072.59;;;0.89;55.40
30744;BME280;17486;46.738;7.622;2023-01-27T06:45:48;95026.78;;;0.70;55.54
30744;BME280;17486;46.738;7.622;2023-01-27T06:48:13;95052.09;;;0.89;55.46
30744;BME280;17486;46.738;7.622;2023-01-27T06:50:39;95038.66;;;0.76;55.37
30744;BME280;17486;46.738;7.622;2023-01-27T06:53:05;95066.59;;;0.90;55.27
30744;BME280;17486;46.738;7.622;2023-01-27T06:55:31;95071.69;;;0.91;55.39
30744;BME280;17486;46.738;7.622;2023-01-27T06:57:57;95037.88;;;0.71;55.39
30744;BME280;17486;46.738;7.622;2023-01-27T07:00:22;95080.16;;;0.96;54.98
30744;BME280;17486;46.738;7.622;2023-01-27T07:02:48;95088.69;;;0.97;55.55
30744;BME280;17486;46.738;7.622;2023-01-27T07:05:15;95091.25;;;0.98;55.58
30744;BME280;17486;46.738;7.622;2023-01-27T07:07:40;95092.94;;;0.98;55.32
30744;BME280;17486;46.738;7.622;2023-01-27T07:10:06;95096.38;;;0.98;55.00
30744;BME280;17486;46.738;7.622;2023-01-27T07:12:32;95098.06;;;0.98;55.60
30744;BME280;17486;46.738;7.622;2023-01-27T07:15:06;95100.66;;;0.96;55.57
30744;BME280;17486;46.738;7.622;2023-01-27T07:17:32;95098.97;;;0.94;54.99
30744;BME280;17486;46.738;7.622;2023-01-27T07:19:58;95105.75;;;0.98;54.43
30744;BME280;17486;46.738;7.622;2023-01-27T07:22:23;95094.84;;;0.83;54.01
30744;BME280;17486;46.738;7.622;2023-01-27T07:24:48;95102.50;;;0.87;53.91
30744;BME280;17486;46.738;7.622;2023-01-27T07:27:14;95121.28;;;0.86;53.93
30744;BME280;17486;46.738;7.622;2023-01-27T07:29:39;95094.81;;;0.87;53.76
30744;BME280;17486;46.738;7.622;2023-01-27T07:32:05;95099.94;;;0.87;53.15
30744;BME280;17486;46.738;7.622;2023-01-27T07:34:31;95097.41;;;0.83;53.34
30744;BME280;17486;46.738;7.622;2023-01-27T07:36:56;95099.09;;;0.85;52.76
30744;BME280;17486;46.738;7.622;2023-01-27T07:39:21;95099.97;;;0.83;52.54
30744;BME280;17486;46.738;7.622;2023-01-27T07:41:48;95085.50;;;0.81;52.58
30744;BME280;17486;46.738;7.622;2023-01-27T07:44:13;95060.19;;;0.61;52.66
30744;BME280;17486;46.738;7.622;2023-01-27T07:46:39;95089.84;;;0.76;52.33
30744;BME280;17486;46.738;7.622;2023-01-27T07:49:04;95080.44;;;0.78;52.14
30744;BME280;17486;46.738;7.622;2023-01-27T07:51:30;95065.97;;;0.75;52.07
30744;BME280;17486;46.738;7.622;2023-01-27T07:53:55;95080.38;;;0.81;51.90
30744;BME280;17486;46.738;7.622;2023-01-27T07:56:21;95035.53;;;0.57;51.58
30744;BME280;17486;46.738;7.622;2023-01-27T07:58:46;95046.56;;;0.59;51.96
30744;BME280;17486;46.738;7.622;2023-01-27T08:01:12;95080.44;;;0.78;51.47
30744;BME280;17486;46.738;7.622;2023-01-27T08:03:38;95049.88;;;0.67;51.08
30744;BME280;17486;46.738;7.622;2023-01-27T08:06:08;95051.69;;;0.59;51.26
30744;BME280;17486;46.738;7.622;2023-01-27T08:08:34;95088.88;;;0.85;51.00
30744;BME280;17486;46.738;7.622;2023-01-27T08:11:03;95091.47;;;0.81;51.04
30744;BME280;17486;46.738;7.622;2023-01-27T08:13:30;95067.03;;;0.60;51.27
30744;BME280;17486;46.738;7.622;2023-01-27T08:15:57;95064.44;;;0.63;51.11
30744;BME280;17486;46.738;7.622;2023-01-27T08:18:23;95100.69;;;0.93;50.92
30744;BME280;17486;46.738;7.622;2023-01-27T08:20:51;95100.59;;;1.01;51.08
30744;BME280;17486;46.738;7.622;2023-01-27T08:23:17;95102.22;;;1.05;51.16
30744;BME280;17486;46.738;7.622;2023-01-27T08:25:54;95103.88;;;1.09;51.06
30744;BME280;17486;46.738;7.622;2023-01-27T08:28:21;95117.41;;;1.18;50.71
30744;BME280;17486;46.738;7.622;2023-01-27T08:30:47;95132.75;;;1.21;50.94
30744;BME280;17486;46.738;7.622;2023-01-27T08:33:15;95135.19;;;1.27;51.23
30744;BME280;17486;46.738;7.622;2023-01-27T08:35:40;95132.50;;;1.38;50.80
30744;BME280;17486;46.738;7.622;2023-01-27T08:38:12;95136.72;;;1.39;50.78
30744;BME280;17486;46.738;7.622;2023-01-27T08:40:38;95159.69;;;1.45;51.41
30744;BME280;17486;46.738;7.622;2023-01-27T08:43:05;95141.78;;;1.43;51.51
30744;BME280;17486;46.738;7.622;2023-01-27T08:45:30;95153.63;;;1.51;51.43
30744;BME280;17486;46.738;7.622;2023-01-27T08:47:56;95145.09;;;1.50;51.31
30744;BME280;17486;46.738;7.622;2023-01-27T08:50:21;95154.41;;;1.54;51.67
30744;BME280;17486;46.738;7.622;2023-01-27T08:52:47;95145.88;;;1.55;51.65
30744;BME280;17486;46.738;7.622;2023-01-27T08:55:12;95140.69;;;1.60;51.71
30744;BME280;17486;46.738;7.622;2023-01-27T08:57:38;95143.25;;;1.60;51.50
30744;BME280;17486;46.738;7.622;2023-01-27T09:00:04;95129.69;;;1.52;51.34
30744;BME280;17486;46.738;7.622;2023-01-27T09:02:30;95121.88;;;1.59;51.75
30744;BME280;17486;46.738;7.622;2023-01-27T09:04:56;95138.84;;;1.65;51.69
30744;BME280;17486;46.738;7.622;2023-01-27T09:07:21;95131.13;;;1.68;51.57
30744;BME280;17486;46.738;7.622;2023-01-27T09:09:47;95114.16;;;1.61;51.75
30744;BME280;17486;46.738;7.622;2023-01-27T09:12:13;95093.78;;;1.53;51.55
30744;BME280;17486;46.738;7.622;2023-01-27T09:14:39;95126.69;;;1.78;51.85
30744;BME280;17486;46.738;7.622;2023-01-27T09:17:04;95137.72;;;1.83;51.82
30744;BME280;17486;46.738;7.622;2023-01-27T09:19:30;95102.31;;;1.54;52.24
30744;BME280;17486;46.738;7.622;2023-01-27T09:21:55;95103.16;;;1.54;52.49
30744;BME280;17486;46.738;7.622;2023-01-27T09:24:20;95101.47;;;1.55;52.44
30744;BME280;17486;46.738;7.622;2023-01-27T09:26:46;95149.69;;;1.82;52.79
30744;BME280;17486;46.738;7.622;2023-01-27T09:29:12;95103.81;;;1.67;52.54
30744;BME280;17486;46.738;7.622;2023-01-27T09:31:37;95138.44;;;1.90;52.45
30744;BME280;17486;46.738;7.622;2023-01-27T09:34:03;95136.72;;;1.92;52.71
30744;BME280;17486;46.738;7.622;2023-01-27T09:36:31;95143.47;;;1.96;52.52
30744;BME280;17486;46.738;7.622;2023-01-27T09:39:05;95154.50;;;2.01;52.53
30744;BME280;17486;46.738;7.622;2023-01-27T09:55:38;95155.75;;;2.27;52.42
30744;BME280;17486;46.738;7.622;2023-01-27T09:58:43;95153.94;;;2.30;52.64
30744;BME280;17486;46.738;7.622;2023-01-27T10:06:52;95119.09;;;2.19;51.96
30744;BME280;17486;46.738;7.622;2023-01-27T10:17:36;95106.84;;;2.35;51.88
30744;BME280;17486;46.738;7.622;2023-01-27T10:20:20;95123.00;;;2.38;51.70
30744;BME280;17486;46.738;7.622;2023-01-27T10:22:56;95110.97;;;2.42;51.53
30744;BME280;17486;46.738;7.622;2023-01-27T10:25:34;95166.06;;;2.69;51.36
30744;BME280;17486;46.738;7.622;2023-01-27T10:28:11;95153.13;;;2.72;51.42
30744;BME280;17486;46.738;7.622;2023-01-27T10:30:39;95104.94;;;2.44;51.08
30744;BME280;17486;46.738;7.622;2023-01-27T10:33:18;95142.03;;;2.72;51.21
30744;BME280;17486;46.738;7.622;2023-01-27T10:35:52;95141.97;;;2.75;51.04
30744;BME280;17486;46.738;7.622;2023-01-27T10:38:38;95109.06;;;2.52;51.01
30744;BME280;17486;46.738;7.622;2023-01-27T10:44:21;95146.00;;;2.87;50.96
30744;BME280;17486;46.738;7.622;2023-01-27T10:49:48;95161.34;;;2.90;50.78
30744;BME280;17486;46.738;7.622;2023-01-27T10:52:26;95132.44;;;2.80;50.22
30744;BME280;17486;46.738;7.622;2023-01-27T10:57:38;95139.81;;;2.95;50.42
30744;BME280;17486;46.738;7.622;2023-01-27T11:00:15;95125.41;;;2.90;50.18
30744;BME280;17486;46.738;7.622;2023-01-27T11:05:32;95133.78;;;2.98;50.23
30744;BME280;17486;46.738;7.622;2023-01-27T11:08:14;95086.38;;;2.72;49.80
30744;BME280;17486;46.738;7.622;2023-01-27T11:10:47;95123.63;;;2.92;49.56
30744;BME280;17486;46.738;7.622;2023-01-27T11:13:32;95077.91;;;2.69;49.99
30744;BME280;17486;46.738;7.622;2023-01-27T11:16:01;95127.88;;;2.93;49.76
30744;BME280;17486;46.738;7.622;2023-01-27T11:18:29;95129.53;;;2.95;49.47
30744;BME280;17486;46.738;7.622;2023-01-27T11:21:08;95103.03;;;2.93;49.65
30744;BME280;17486;46.738;7.622;2023-01-27T11:23:44;95117.53;;;2.97;49.29
30744;BME280;17486;46.738;7.622;2023-01-27T11:26:33;95079.38;;;2.80;49.67
30744;BME280;17486;46.738;7.622;2023-01-27T11:29:41;95118.28;;;3.01;49.28
30744;BME280;17486;46.738;7.622;2023-01-27T11:35:14;95106.31;;;3.02;49.26
30744;BME280;17486;46.738;7.622;2023-01-27T11:37:46;95103.78;;;2.98;49.58
30744;BME280;17486;46.738;7.622;2023-01-27T11:40:29;95123.34;;;3.06;49.62
30744;BME280;17486;46.738;7.622;2023-01-27T11:42:56;95068.09;;;2.86;49.85
30744;BME280;17486;46.738;7.622;2023-01-27T11:45:23;95043.63;;;2.70;49.89
30744;BME280;17486;46.738;7.622;2023-01-27T11:47:56;95105.53;;;2.98;49.83
30744;BME280;17486;46.738;7.622;2023-01-27T11:50:29;95085.25;;;2.84;49.67
30744;BME280;17486;46.738;7.622;2023-01-27T11:53:10;95062.31;;;2.76;49.88
30744;BME280;17486;46.738;7.622;2023-01-27T11:55:39;95075.78;;;2.88;49.98
30744;BME280;17486;46.738;7.622;2023-01-27T12:00:46;95055.50;;;2.75;49.90
30744;BME280;17486;46.738;7.622;2023-01-27T12:05:46;95057.88;;;2.85;49.84
30744;BME280;17486;46.738;7.622;2023-01-27T12:08:45;95092.47;;;3.07;49.85
30744;BME280;17486;46.738;7.622;2023-01-27T12:13:49;95048.47;;;2.84;50.10
30744;BME280;17486;46.738;7.622;2023-01-27T12:16:15;95057.91;;;2.83;50.08
30744;BME280;17486;46.738;7.622;2023-01-27T12:18:51;95052.81;;;2.80;49.94
30744;BME280;17486;46.738;7.622;2023-01-27T12:21:17;95089.09;;;3.04;50.23
30744;BME280;17486;46.738;7.622;2023-01-27T12:23:49;95051.88;;;2.86;50.36
30744;BME280;17486;46.738;7.622;2023-01-27T12:26:15;95085.63;;;3.06;50.19
30744;BME280;17486;46.738;7.622;2023-01-27T12:28:53;95075.34;;;3.06;50.00
30744;BME280;17486;46.738;7.622;2023-01-27T12:31:25;95037.50;;;2.77;50.45
30744;BME280;17486;46.738;7.622;2023-01-27T12:34:05;95074.72;;;2.96;50.40
30744;BME280;17486;46.738;7.622;2023-01-27T12:36:40;95039.25;;;2.75;50.29
30744;BME280;17486;46.738;7.622;2023-01-27T12:41:47;95064.63;;;2.89;50.48
30744;BME280;17486;46.738;7.622;2023-01-27T12:44:18;95034.28;;;2.69;50.51
30744;BME280;17486;46.738;7.622;2023-01-27T12:47:00;95067.19;;;2.89;51.07
30744;BME280;17486;46.738;7.622;2023-01-27T12:49:36;95068.94;;;2.87;50.51
30744;BME280;17486;46.738;7.622;2023-01-27T12:52:04;95052.09;;;2.75;50.86
30744;BME280;17486;46.738;7.622;2023-01-27T12:54:33;95026.56;;;2.67;50.78
30744;BME280;17486;46.738;7.622;2023-01-27T12:57:10;95068.09;;;2.86;50.34
30744;BME280;17486;46.738;7.622;2023-01-27T12:59:45;95023.34;;;2.59;50.53
30744;BME280;17486;46.738;7.622;2023-01-27T13:02:20;95064.88;;;2.76;50.41
30744;BME280;17486;46.738;7.622;2023-01-27T13:04:53;95066.66;;;2.74;50.70
30744;BME280;17486;46.738;7.622;2023-01-27T13:07:22;95054.59;;;2.78;50.86
30744;BME280;17486;46.738;7.622;2023-01-27T13:09:53;95024.22;;;2.58;50.76
30744;BME280;17486;46.738;7.622;2023-01-27T13:12:24;95031.88;;;2.61;50.82
30744;BME280;17486;46.738;7.622;2023-01-27T13:14:58;95055.44;;;2.78;51.11
30744;BME280;17486;46.738;7.622;2023-01-27T13:17:38;95037.66;;;2.69;50.95
30744;BME280;17486;46.738;7.622;2023-01-27T13:23:06;95071.53;;;2.85;51.20
30744;BME280;17486;46.738;7.622;2023-01-27T13:25:43;95032.69;;;2.61;50.64
30744;BME280;17486;46.738;7.622;2023-01-27T13:28:14;95051.38;;;2.68;50.85
30744;BME280;17486;46.738;7.622;2023-01-27T13:30:44;95075.00;;;2.84;50.77
30744;BME280;17486;46.738;7.622;2023-01-27T13:42:10;95092.97;;;2.86;51.41
30744;BME280;17486;46.738;7.622;2023-01-27T13:44:48;95053.25;;;2.61;50.99
30744;BME280;17486;46.738;7.622;2023-01-27T13:47:22;95048.09;;;2.61;50.98
30744;BME280;17486;46.738;7.622;2023-01-27T13:49:53;95076.75;;;2.82;51.07
30744;BME280;17486;46.738;7.622;2023-01-27T13:52:22;95053.91;;;2.70;51.17
30744;BME280;17486;46.738;7.622;2023-01-27T13:54:48;95045.56;;;2.60;51.21
30744;BME280;17486;46.738;7.622;2023-01-27T14:00:20;95089.56;;;2.84;51.02
30744;BME280;17486;46.738;7.622;2023-01-27T14:03:11;95088.81;;;2.78;50.92
30744;BME280;17486;46.738;7.622;2023-01-27T14:11:27;95080.28;;;2.78;51.46
30744;BME280;17486;46.738;7.622;2023-01-27T14:19:51;95088.81;;;2.78;51.23
30744;BME280;17486;46.738;7.622;2023-01-27T14:22:35;95085.44;;;2.76;51.37
30744;BME280;17486;46.738;7.622;2023-01-27T14:25:15;95089.69;;;2.77;51.41
30744;BME280;17486;46.738;7.622;2023-01-27T14:27:46;95084.63;;;2.74;51.56
30744;BME280;17486;46.738;7.622;2023-01-27T14:30:23;95056.78;;;2.56;51.35
30744;BME280;17486;46.738;7.622;2023-01-27T14:33:08;95090.44;;;2.82;51.17
30744;BME280;17486;46.738;7.622;2023-01-27T14:36:11;95104.22;;;2.78;51.23
30744;BME280;17486;46.738;7.622;2023-01-27T14:38:53;95095.53;;;2.84;51.68
30744;BME280;17486;46.738;7.622;2023-01-27T14:52:46;95091.06;;;2.94;51.72
30744;BME280;17486;46.738;7.622;2023-01-27T14:55:45;95116.63;;;3.00;51.66
30744;BME280;17486;46.738;7.622;2023-01-27T14:58:34;95112.34;;;2.99;51.08